Time;durP1;ratioP1;P1;durP2;ratioP2;P2;SDS_P1;SDS_P2;PMS_P1;PMS_P2;Temp;Humidity;BMP_temperature;BMP_pressure;BME280_temperature;BME280_humidity;BME280_pressure;Samples;Min_cycle;Max_cycle;Signal;HPM_P1;HPM_P2
2022/01/13 00:02:20;;;;;;;38.92;19.10;;;1.90;99.90;;;;;;5083246;28;20031;-76
2022/01/13 00:04:46;;;;;;;45.88;22.33;;;1.80;99.90;;;;;;5082062;28;20021;-75
2022/01/13 00:07:13;;;;;;;48.70;23.73;;;1.80;99.90;;;;;;5084502;28;20304;-76
2022/01/13 00:09:39;;;;;;;48.17;23.23;;;1.80;99.90;;;;;;5087304;28;20091;-75
2022/01/13 00:12:08;;;;;;;42.40;20.20;;;1.80;99.90;;;;;;5087053;28;20028;-75
2022/01/13 00:14:42;;;;;;;45.60;21.75;;;1.80;99.90;;;;;;5087148;28;20356;-75
2022/01/13 00:17:23;;;;;;;39.92;20.33;;;1.80;99.90;;;;;;5085713;28;20028;-74
2022/01/13 00:22:48;;;;;;;47.92;22.20;;;1.80;99.90;;;;;;5086040;28;20102;-75
2022/01/13 00:25:17;;;;;;;45.13;21.08;;;1.80;99.90;;;;;;5087241;28;20036;-75
2022/01/13 00:27:48;;;;;;;45.85;21.27;;;1.80;99.90;;;;;;5087034;28;20021;-75
2022/01/13 00:30:18;;;;;;;40.72;20.55;;;1.70;99.90;;;;;;5086834;28;20021;-75
2022/01/13 00:32:45;;;;;;;38.67;20.95;;;1.70;99.90;;;;;;5086922;28;20028;-75
2022/01/13 00:35:11;;;;;;;44.42;19.95;;;1.70;99.90;;;;;;5085579;28;20020;-75
2022/01/13 00:37:38;;;;;;;45.65;21.38;;;1.70;99.90;;;;;;5086570;28;20104;-74
2022/01/13 00:40:05;;;;;;;41.42;20.40;;;1.60;99.90;;;;;;5085632;28;20039;-75
2022/01/13 00:42:32;;;;;;;43.67;20.75;;;1.60;99.90;;;;;;5086578;28;20051;-76
2022/01/13 00:44:58;;;;;;;39.05;20.13;;;1.60;99.90;;;;;;5085516;28;20013;-75
2022/01/13 00:47:23;;;;;;;42.58;20.30;;;1.70;99.90;;;;;;5085316;28;20246;-76
2022/01/13 00:49:49;;;;;;;37.70;18.33;;;1.80;99.90;;;;;;5085323;28;20059;-75
2022/01/13 00:52:15;;;;;;;41.75;19.88;;;1.80;99.90;;;;;;5086579;28;20031;-75
2022/01/13 00:54:41;;;;;;;37.90;18.75;;;1.80;99.90;;;;;;5085444;28;20062;-75
2022/01/13 00:57:07;;;;;;;43.78;19.17;;;1.80;99.90;;;;;;5086445;28;20017;-76
2022/01/13 00:59:33;;;;;;;39.13;20.70;;;1.80;99.90;;;;;;5085071;28;20065;-75
2022/01/13 01:01:59;;;;;;;38.97;20.23;;;1.80;99.90;;;;;;5086267;28;20052;-76
2022/01/13 01:04:25;;;;;;;41.70;19.33;;;1.80;99.90;;;;;;5085305;28;20070;-76
2022/01/13 01:06:51;;;;;;;41.88;19.23;;;1.80;99.90;;;;;;5083411;28;20303;-75
2022/01/13 01:09:28;;;;;;;41.70;19.73;;;1.70;99.90;;;;;;5085218;28;20306;-76
2022/01/13 01:11:55;;;;;;;42.42;18.42;;;1.70;99.90;;;;;;5086116;28;20023;-75
2022/01/13 01:14:21;;;;;;;42.00;19.60;;;1.70;99.90;;;;;;5085102;28;20016;-76
2022/01/13 01:16:48;;;;;;;36.60;18.08;;;1.70;99.90;;;;;;5085653;28;20200;-76
2022/01/13 01:19:20;;;;;;;35.83;17.90;;;1.60;99.90;;;;;;5084595;28;20039;-75
2022/01/13 01:22:03;;;;;;;31.55;15.73;;;1.60;99.90;;;;;;5084725;28;20110;-75
2022/01/13 01:24:54;;;;;;;36.55;16.30;;;1.60;99.90;;;;;;5086029;28;20013;-76
2022/01/13 01:27:18;;;;;;;38.22;16.88;;;1.60;99.90;;;;;;5085003;28;20091;-75
2022/01/13 01:29:53;;;;;;;38.25;17.23;;;1.60;99.90;;;;;;5085777;28;20013;-75
2022/01/13 01:32:18;;;;;;;34.33;15.80;;;1.60;99.90;;;;;;5084485;28;20219;-75
2022/01/13 01:35:02;;;;;;;38.05;17.58;;;1.60;99.90;;;;;;5084669;28;20088;-75
2022/01/13 01:37:30;;;;;;;37.15;16.77;;;1.50;99.90;;;;;;5084407;28;20016;-75
2022/01/13 01:39:57;;;;;;;35.22;16.98;;;1.40;99.90;;;;;;5068175;28;20055;-75
2022/01/13 01:42:24;;;;;;;44.70;19.98;;;1.40;99.90;;;;;;5084339;28;20059;-75
2022/01/13 01:44:54;;;;;;;31.38;16.55;;;1.40;99.90;;;;;;5085166;28;20082;-75
2022/01/13 01:47:21;;;;;;;33.63;16.45;;;1.40;99.90;;;;;;5068106;28;20095;-75
2022/01/13 01:49:52;;;;;;;38.38;16.30;;;1.40;99.90;;;;;;5084377;28;20089;-75
2022/01/13 01:52:19;;;;;;;32.30;17.42;;;1.40;99.90;;;;;;5068067;28;20040;-75
2022/01/13 01:54:46;;;;;;;38.60;18.00;;;1.40;99.90;;;;;;5085472;28;20028;-76
2022/01/13 01:57:13;;;;;;;38.22;16.45;;;1.40;99.90;;;;;;5067328;28;20087;-77
2022/01/13 01:59:41;;;;;;;35.15;16.58;;;1.40;99.90;;;;;;5083799;28;20103;-76
2022/01/13 02:02:08;;;;;;;35.55;16.92;;;1.50;99.90;;;;;;5067558;28;20096;-76
2022/01/13 02:04:35;;;;;;;29.45;15.00;;;1.40;99.90;;;;;;5084196;28;20044;-76
2022/01/13 02:07:04;;;;;;;35.15;16.10;;;1.40;99.90;;;;;;5082436;28;20024;-76
2022/01/13 02:09:30;;;;;;;38.08;17.20;;;1.40;99.90;;;;;;5084968;28;20062;-76
2022/01/13 02:12:02;;;;;;;27.38;15.10;;;1.40;99.90;;;;;;5067357;28;20032;-76
2022/01/13 02:14:35;;;;;;;34.63;15.13;;;1.40;99.90;;;;;;5083671;28;20020;-76
2022/01/13 02:17:15;;;;;;;31.17;15.52;;;1.40;99.90;;;;;;5084041;28;20103;-76
2022/01/13 02:19:45;;;;;;;33.50;15.98;;;1.40;99.90;;;;;;5083571;28;20055;-76
2022/01/13 02:22:11;;;;;;;34.65;17.52;;;1.30;99.90;;;;;;5067151;28;20028;-76
2022/01/13 02:24:37;;;;;;;31.38;15.45;;;1.40;99.90;;;;;;5066843;28;20017;-76
2022/01/13 02:27:05;;;;;;;36.65;17.73;;;1.30;99.90;;;;;;5084817;28;20025;-76
2022/01/13 02:29:31;;;;;;;41.97;17.70;;;1.30;99.90;;;;;;5066376;28;20024;-76
2022/01/13 02:31:57;;;;;;;29.55;16.40;;;1.20;99.90;;;;;;5084395;28;20020;-76
2022/01/13 02:34:23;;;;;;;36.35;17.42;;;1.10;99.90;;;;;;5083343;28;20027;-76
2022/01/13 02:36:52;;;;;;;34.85;18.48;;;1.10;99.90;;;;;;5066477;28;20337;-76
2022/01/13 02:39:19;;;;;;;37.95;17.65;;;1.10;99.90;;;;;;5083648;28;20046;-76
2022/01/13 02:41:45;;;;;;;39.08;18.10;;;1.10;99.90;;;;;;5079298;28;20020;-76
2022/01/13 02:44:16;;;;;;;39.78;17.70;;;1.10;99.90;;;;;;5096794;28;20042;-77
2022/01/13 02:47:05;;;;;;;32.47;17.00;;;1.10;99.90;;;;;;5096417;28;20016;-76
2022/01/13 02:49:28;;;;;;;34.88;16.83;;;1.10;99.90;;;;;;5093141;28;20012;-76
2022/01/13 02:51:54;;;;;;;41.70;18.05;;;1.10;99.90;;;;;;5092024;28;20016;-76
2022/01/13 02:54:19;;;;;;;37.05;17.50;;;1.10;99.90;;;;;;5067764;28;20028;-76
2022/01/13 02:56:45;;;;;;;39.92;18.92;;;1.10;99.90;;;;;;5083228;28;20334;-76
2022/01/13 02:59:12;;;;;;;39.63;20.77;;;1.00;99.90;;;;;;5082958;28;20027;-76
2022/01/13 03:01:39;;;;;;;43.90;18.05;;;1.00;99.90;;;;;;5082974;28;20051;-76
2022/01/13 03:04:07;;;;;;;38.30;18.40;;;1.00;99.90;;;;;;5083047;28;20025;-76
2022/01/13 03:06:36;;;;;;;39.40;18.20;;;1.00;99.90;;;;;;5082486;28;20044;-77
2022/01/13 03:09:04;;;;;;;42.08;19.25;;;1.10;99.90;;;;;;5083718;28;20304;-76
2022/01/13 03:11:35;;;;;;;38.63;18.77;;;1.00;99.90;;;;;;5082843;28;20024;-77
2022/01/13 03:14:04;;;;;;;43.45;18.85;;;1.00;99.90;;;;;;5083975;28;20026;-77
2022/01/13 03:16:30;;;;;;;39.03;17.92;;;1.10;99.90;;;;;;5084060;28;20055;-76
2022/01/13 03:18:57;;;;;;;36.88;17.52;;;1.10;99.90;;;;;;5066150;28;20032;-76
2022/01/13 03:21:22;;;;;;;33.78;16.95;;;1.10;99.90;;;;;;5084144;28;20113;-77
2022/01/13 03:23:49;;;;;;;35.33;17.50;;;1.10;99.90;;;;;;5083844;28;20036;-76
2022/01/13 03:26:15;;;;;;;36.10;16.27;;;1.00;99.90;;;;;;5066415;28;20020;-77
2022/01/13 03:31:26;;;;;;;45.90;18.92;;;1.00;99.90;;;;;;5082812;28;20058;-76
2022/01/13 03:33:53;;;;;;;36.70;16.88;;;1.00;99.90;;;;;;5082619;28;20020;-76
2022/01/13 03:36:18;;;;;;;39.72;17.23;;;1.00;99.90;;;;;;5083651;28;20262;-76
2022/01/13 03:38:45;;;;;;;39.80;17.20;;;1.00;99.90;;;;;;5083597;28;20083;-76
2022/01/13 03:41:11;;;;;;;35.55;17.55;;;1.00;99.90;;;;;;5084807;28;20032;-76
2022/01/13 03:43:37;;;;;;;40.25;17.88;;;1.00;99.90;;;;;;5086710;28;20025;-77
2022/01/13 03:46:04;;;;;;;34.05;16.17;;;1.00;99.90;;;;;;5087092;28;20021;-77
2022/01/13 03:48:30;;;;;;;34.42;17.48;;;1.00;99.90;;;;;;5070176;28;20017;-76
2022/01/13 03:50:56;;;;;;;30.75;15.80;;;1.00;99.90;;;;;;5069986;28;20074;-77
2022/01/13 03:54:02;;;;;;;31.38;16.25;;;1.10;99.90;;;;;;5086492;28;20103;-76
2022/01/13 03:57:05;;;;;;;33.47;15.95;;;1.00;99.90;;;;;;5075518;28;20020;-77
2022/01/13 04:00:10;;;;;;;33.63;16.38;;;1.00;99.90;;;;;;5086308;28;20088;-76
2022/01/13 04:02:36;;;;;;;30.00;15.90;;;0.90;99.90;;;;;;5061418;28;20028;-76
2022/01/13 04:05:02;;;;;;;35.80;16.90;;;0.90;99.90;;;;;;5087399;28;20043;-76
2022/01/13 04:07:28;;;;;;;40.80;16.90;;;0.90;99.90;;;;;;5084514;28;20047;-77
2022/01/13 04:10:34;;;;;;;39.97;17.25;;;0.90;99.90;;;;;;5087279;28;20048;-77
2022/01/13 04:12:59;;;;;;;36.45;17.23;;;0.90;99.90;;;;;;5061317;28;20021;-77
2022/01/13 04:15:29;;;;;;;35.25;16.77;;;0.90;99.90;;;;;;5086101;28;20273;-77
2022/01/13 04:17:55;;;;;;;34.80;16.45;;;0.90;99.90;;;;;;5087262;28;20208;-77
2022/01/13 04:20:21;;;;;;;41.08;18.67;;;0.90;99.90;;;;;;5087031;28;20063;-77
2022/01/13 04:22:47;;;;;;;35.97;15.73;;;0.90;99.90;;;;;;5086074;28;20032;-76
2022/01/13 04:25:14;;;;;;;37.58;18.50;;;1.00;99.90;;;;;;5087058;28;20351;-77
2022/01/13 04:27:43;;;;;;;46.65;20.88;;;1.00;99.90;;;;;;5085846;28;20065;-76
2022/01/13 04:30:23;;;;;;;38.55;18.65;;;1.00;99.90;;;;;;5086818;28;20072;-77
2022/01/13 04:32:49;;;;;;;44.28;19.85;;;1.10;99.90;;;;;;5087034;28;20088;-77
2022/01/13 04:35:15;;;;;;;40.53;17.63;;;1.10;99.90;;;;;;5086679;28;20025;-76
2022/01/13 04:37:41;;;;;;;42.47;19.35;;;1.00;99.90;;;;;;5068446;28;20126;-77
2022/01/13 04:40:09;;;;;;;34.25;16.50;;;1.00;99.90;;;;;;5086726;28;20039;-77
2022/01/13 04:42:36;;;;;;;38.28;16.15;;;1.10;99.90;;;;;;5086761;28;20017;-76
2022/01/13 04:45:04;;;;;;;33.38;16.80;;;1.10;99.90;;;;;;5085345;28;20051;-77
2022/01/13 04:47:30;;;;;;;35.17;16.50;;;1.20;99.90;;;;;;5086598;28;20023;-77
2022/01/13 04:49:56;;;;;;;30.20;15.00;;;1.20;99.90;;;;;;5086797;28;20024;-77
2022/01/13 04:52:22;;;;;;;32.67;15.38;;;1.30;99.90;;;;;;5086176;28;20013;-77
2022/01/13 04:54:47;;;;;;;42.42;17.02;;;1.30;99.90;;;;;;5085389;28;20119;-77
2022/01/13 04:57:17;;;;;;;34.25;16.17;;;1.30;99.90;;;;;;5085014;28;20029;-77
2022/01/13 04:59:43;;;;;;;38.42;16.73;;;1.20;99.90;;;;;;5086078;28;20070;-77
2022/01/13 05:02:09;;;;;;;40.13;18.27;;;1.20;99.90;;;;;;5085479;28;20195;-77
2022/01/13 05:04:34;;;;;;;34.70;16.33;;;1.10;99.90;;;;;;5085354;28;20024;-76
2022/01/13 05:07:00;;;;;;;30.25;15.68;;;1.00;99.90;;;;;;5083817;28;20020;-78
2022/01/13 05:09:26;;;;;;;37.38;15.70;;;1.10;99.90;;;;;;5085525;28;20056;-77
2022/01/13 05:11:51;;;;;;;30.67;14.00;;;1.20;99.90;;;;;;5085786;28;20311;-78
2022/01/13 05:14:17;;;;;;;37.75;15.32;;;1.20;99.90;;;;;;5086335;28;20097;-77
2022/01/13 05:19:35;;;;;;;34.03;15.80;;;1.30;99.90;;;;;;5084870;28;20411;-77
2022/01/13 05:22:16;;;;;;;34.35;16.67;;;1.30;99.90;;;;;;5069372;28;20062;-77
2022/01/13 05:24:45;;;;;;;33.92;16.20;;;1.30;99.90;;;;;;5085166;28;20024;-76
2022/01/13 05:27:11;;;;;;;32.40;14.95;;;1.30;99.90;;;;;;5084447;28;20032;-77
2022/01/13 05:29:37;;;;;;;35.40;15.40;;;1.20;99.90;;;;;;5085783;28;20016;-77
2022/01/13 05:32:04;;;;;;;33.05;16.08;;;1.10;99.90;;;;;;5084817;28;20039;-77
2022/01/13 05:34:29;;;;;;;32.30;15.77;;;1.10;99.90;;;;;;5084261;28;20193;-77
2022/01/13 05:36:55;;;;;;;32.03;15.88;;;1.10;99.90;;;;;;5084257;28;20130;-77
2022/01/13 05:39:21;;;;;;;33.80;16.50;;;1.10;99.90;;;;;;5085548;28;20021;-77
2022/01/13 05:41:46;;;;;;;36.03;15.05;;;1.10;99.90;;;;;;5085256;28;20024;-77
2022/01/13 05:44:12;;;;;;;30.58;14.50;;;1.10;99.90;;;;;;5084584;28;20235;-76
2022/01/13 05:46:38;;;;;;;30.83;14.63;;;1.10;99.90;;;;;;5085271;28;20012;-77
2022/01/13 05:49:03;;;;;;;32.55;14.38;;;1.10;99.90;;;;;;5084337;28;20020;-76
2022/01/13 05:51:29;;;;;;;35.63;16.08;;;1.00;99.90;;;;;;5084372;28;20024;-77
2022/01/13 05:53:55;;;;;;;38.83;17.25;;;0.90;99.90;;;;;;5084273;28;20016;-77
2022/01/13 05:56:21;;;;;;;37.42;16.20;;;0.90;99.90;;;;;;5085043;28;20032;-76
2022/01/13 05:58:46;;;;;;;32.90;16.75;;;1.00;99.90;;;;;;5085497;28;20031;-77
2022/01/13 06:01:12;;;;;;;36.15;16.40;;;1.00;99.90;;;;;;5068772;28;20051;-76
2022/01/13 06:03:38;;;;;;;39.15;19.30;;;0.90;99.90;;;;;;5091947;28;20071;-76
2022/01/13 06:06:03;;;;;;;33.63;16.00;;;0.90;99.90;;;;;;5094646;28;20024;-77
2022/01/13 06:08:29;;;;;;;37.17;15.93;;;0.90;99.90;;;;;;5091086;28;20021;-77
2022/01/13 06:10:55;;;;;;;35.20;16.15;;;0.90;99.90;;;;;;5092805;28;20004;-75
2022/01/13 06:13:20;;;;;;;38.30;16.40;;;0.90;99.90;;;;;;5092840;28;20012;-74
2022/01/13 06:15:46;;;;;;;36.55;16.15;;;0.80;99.90;;;;;;5075781;28;20050;-74
2022/01/13 06:18:15;;;;;;;37.00;17.35;;;0.80;99.90;;;;;;5092351;28;20046;-74
2022/01/13 06:20:40;;;;;;;41.78;17.90;;;0.80;99.90;;;;;;5074702;28;20048;-75
2022/01/13 06:23:07;;;;;;;31.70;15.05;;;0.70;99.90;;;;;;5071835;28;20349;-74
2022/01/13 06:25:33;;;;;;;35.25;16.52;;;0.70;99.90;;;;;;5086445;28;20025;-74
2022/01/13 06:27:59;;;;;;;40.53;16.40;;;0.70;99.90;;;;;;5085720;28;20028;-75
2022/01/13 06:30:25;;;;;;;36.85;16.05;;;0.80;99.90;;;;;;5086003;28;20087;-74
2022/01/13 06:32:51;;;;;;;41.78;19.98;;;0.80;99.90;;;;;;5084721;28;20016;-75
2022/01/13 06:35:16;;;;;;;38.42;16.63;;;0.70;99.90;;;;;;5084460;28;20211;-74
2022/01/13 06:37:42;;;;;;;30.85;14.73;;;0.70;99.90;;;;;;5083912;28;20020;-74
2022/01/13 06:40:11;;;;;;;32.97;14.48;;;0.70;99.90;;;;;;5083327;28;20315;-74
2022/01/13 06:42:38;;;;;;;33.13;15.48;;;0.70;99.90;;;;;;5066665;28;20266;-75
2022/01/13 06:45:06;;;;;;;32.15;14.07;;;0.80;99.90;;;;;;5066669;28;20035;-74
2022/01/13 06:47:32;;;;;;;33.38;13.80;;;0.80;99.90;;;;;;5084127;28;20012;-74
2022/01/13 06:49:57;;;;;;;31.67;13.38;;;0.80;99.90;;;;;;5084424;28;20300;-74
2022/01/13 06:52:23;;;;;;;28.98;12.90;;;0.80;99.90;;;;;;5084416;28;20246;-74
2022/01/13 06:54:51;;;;;;;30.30;14.45;;;0.70;99.90;;;;;;5083358;28;20028;-75
2022/01/13 06:57:17;;;;;;;32.88;14.73;;;0.80;99.90;;;;;;5082981;28;20036;-74
2022/01/13 06:59:43;;;;;;;31.58;13.93;;;0.70;99.90;;;;;;5084048;28;20215;-74
2022/01/13 07:02:08;;;;;;;39.65;14.40;;;0.70;99.90;;;;;;5083202;28;20020;-75
2022/01/13 07:04:34;;;;;;;40.28;15.05;;;0.70;99.90;;;;;;5066500;28;20208;-75
2022/01/13 07:07:00;;;;;;;37.25;15.55;;;0.80;99.90;;;;;;5082592;28;20056;-75
2022/01/13 07:09:26;;;;;;;40.42;15.90;;;0.80;99.90;;;;;;5082100;28;20040;-75
2022/01/13 07:11:51;;;;;;;30.98;14.07;;;0.80;99.90;;;;;;5066056;28;20023;-74
2022/01/13 07:14:17;;;;;;;38.13;13.68;;;0.70;99.90;;;;;;5084072;28;20066;-75
2022/01/13 07:16:44;;;;;;;31.98;13.48;;;0.70;99.90;;;;;;5082834;28;20020;-75
2022/01/13 07:19:11;;;;;;;30.02;13.77;;;0.70;99.90;;;;;;5083698;28;20357;-75
2022/01/13 07:21:39;;;;;;;32.85;15.27;;;0.70;99.90;;;;;;5049554;28;20040;-75
2022/01/13 07:24:05;;;;;;;33.63;14.98;;;0.80;99.90;;;;;;5066235;28;20096;-75
2022/01/13 07:26:31;;;;;;;28.40;14.07;;;0.70;99.90;;;;;;5084017;28;20024;-74
2022/01/13 07:28:57;;;;;;;29.60;13.45;;;0.70;99.90;;;;;;5065874;28;20219;-75
2022/01/13 07:31:23;;;;;;;28.25;13.02;;;0.70;99.90;;;;;;5083759;28;20032;-75
2022/01/13 07:33:48;;;;;;;25.40;12.02;;;0.70;99.90;;;;;;5083854;28;20044;-75
2022/01/13 07:36:14;;;;;;;29.50;12.77;;;0.70;99.90;;;;;;5082826;28;20019;-76
2022/01/13 07:38:40;;;;;;;31.63;13.10;;;0.70;99.90;;;;;;5082250;28;20145;-75
2022/01/13 07:41:06;;;;;;;24.98;11.95;;;0.70;99.90;;;;;;5083821;28;20043;-75
2022/01/13 07:43:32;;;;;;;26.30;12.40;;;0.70;99.90;;;;;;5082490;28;20024;-77
2022/01/13 07:45:58;;;;;;;30.95;13.35;;;0.70;99.90;;;;;;5083507;28;20121;-75
2022/01/13 07:48:24;;;;;;;26.60;13.20;;;0.70;99.90;;;;;;5049221;28;20103;-76
2022/01/13 07:50:51;;;;;;;28.90;12.55;;;0.60;99.90;;;;;;5082701;28;20020;-77
2022/01/13 07:53:17;;;;;;;27.10;13.20;;;0.70;99.90;;;;;;5083856;28;20029;-74
2022/01/13 07:55:45;;;;;;;29.80;13.52;;;0.60;99.90;;;;;;5083184;28;20027;-78
2022/01/13 07:58:11;;;;;;;30.13;12.98;;;0.60;99.90;;;;;;5065870;28;20039;-79
2022/01/13 08:00:38;;;;;;;32.95;15.15;;;0.70;99.90;;;;;;5078436;28;20075;-78
2022/01/13 08:03:03;;;;;;;31.67;14.38;;;0.70;99.90;;;;;;5083642;28;20044;-78
2022/01/13 08:05:29;;;;;;;30.95;13.50;;;0.70;99.90;;;;;;5065402;28;20012;-77
2022/01/13 08:07:55;;;;;;;33.85;14.68;;;0.70;99.90;;;;;;5081631;28;20031;-77
2022/01/13 08:10:21;;;;;;;34.28;14.80;;;0.70;99.90;;;;;;5080980;28;20103;-78
2022/01/13 08:12:46;;;;;;;34.55;15.45;;;0.70;99.90;;;;;;5100812;28;20048;-79
2022/01/13 08:15:14;;;;;;;32.10;14.48;;;0.70;99.90;;;;;;5092414;28;20024;-79
2022/01/13 08:20:28;;;;;;;39.97;14.00;;;0.80;99.90;;;;;;5079935;28;20390;-77
2022/01/13 08:22:54;;;;;;;49.10;14.20;;;0.80;99.90;;;;;;5082925;28;20020;-79
2022/01/13 08:25:21;;;;;;;37.10;13.93;;;0.80;99.90;;;;;;5078397;28;20093;-80
2022/01/13 08:27:47;;;;;;;30.95;13.90;;;1.00;99.90;;;;;;5103594;28;20048;-80
2022/01/13 08:30:13;;;;;;;32.55;14.25;;;0.90;99.90;;;;;;5101603;28;20317;-78
2022/01/13 08:32:38;;;;;;;37.67;14.13;;;0.90;99.90;;;;;;5086712;28;20048;-79
2022/01/13 08:35:05;;;;;;;37.63;14.18;;;0.90;99.90;;;;;;5092374;28;20084;-76
2022/01/13 08:37:32;;;;;;;46.65;15.35;;;0.90;99.90;;;;;;5106222;28;20019;-80
2022/01/13 08:39:59;;;;;;;42.95;14.55;;;0.90;99.90;;;;;;5097127;28;20040;-80
2022/01/13 08:42:25;;;;;;;44.78;14.45;;;0.90;99.90;;;;;;5087198;28;20039;-82
2022/01/13 08:44:51;;;;;;;37.78;14.30;;;0.90;99.90;;;;;;5086646;28;20327;-83
2022/01/13 08:47:17;;;;;;;32.28;14.52;;;1.00;99.90;;;;;;5085501;28;20025;-80
2022/01/13 08:49:43;;;;;;;36.75;18.08;;;1.00;99.90;;;;;;5078439;28;20017;-78
2022/01/13 08:52:09;;;;;;;33.05;16.35;;;1.00;99.90;;;;;;5088492;28;20036;-80
2022/01/13 08:54:35;;;;;;;29.70;14.95;;;1.00;99.90;;;;;;5085804;28;20024;-79
2022/01/13 08:57:02;;;;;;;32.92;13.63;;;1.10;99.90;;;;;;5086945;28;20130;-81
2022/01/13 08:59:28;;;;;;;38.42;13.48;;;1.10;99.90;;;;;;5088283;28;20032;-77
2022/01/13 09:01:54;;;;;;;24.02;12.30;;;1.10;99.90;;;;;;5086030;28;20069;-81
2022/01/13 09:04:20;;;;;;;27.35;12.75;;;1.20;99.90;;;;;;5067817;28;20016;-78
2022/01/13 09:06:46;;;;;;;24.77;12.32;;;1.10;99.90;;;;;;5085387;28;20028;-77
2022/01/13 09:09:14;;;;;;;22.58;12.13;;;1.20;99.90;;;;;;5084396;28;20027;-76
2022/01/13 09:11:42;;;;;;;32.85;12.45;;;1.30;99.90;;;;;;5083202;28;20308;-79
2022/01/13 09:14:08;;;;;;;26.58;12.90;;;1.40;99.90;;;;;;5086304;28;20029;-79
2022/01/13 09:16:41;;;;;;;29.48;12.50;;;1.50;99.90;;;;;;5076570;28;20037;-79
2022/01/13 09:19:11;;;;;;;25.13;11.60;;;1.60;99.90;;;;;;5089368;28;20024;-77
2022/01/13 09:21:38;;;;;;;37.05;12.40;;;1.70;99.90;;;;;;5094567;28;20067;-81
2022/01/13 09:24:07;;;;;;;26.15;12.25;;;1.80;99.90;;;;;;5104257;28;20039;-79
2022/01/13 09:26:33;;;;;;;25.77;12.50;;;1.80;99.90;;;;;;5103988;28;20055;-77
2022/01/13 09:28:59;;;;;;;25.02;12.05;;;1.80;99.90;;;;;;5104059;28;20028;-77
2022/01/13 09:31:26;;;;;;;25.23;12.02;;;1.70;99.90;;;;;;5102680;28;20274;-78
2022/01/13 09:33:52;;;;;;;22.38;11.27;;;1.80;99.90;;;;;;5084906;28;20017;-75
2022/01/13 09:36:19;;;;;;;30.58;12.93;;;1.90;99.90;;;;;;5083942;28;20102;-73
2022/01/13 09:38:44;;;;;;;29.58;11.98;;;1.90;99.90;;;;;;5095218;28;20016;-77
2022/01/13 09:41:11;;;;;;;30.60;12.68;;;2.00;99.90;;;;;;5115530;28;20066;-77
2022/01/13 09:43:37;;;;;;;28.80;12.93;;;2.10;99.90;;;;;;5114286;28;20008;-77
2022/01/13 09:46:03;;;;;;;33.00;14.10;;;2.10;99.90;;;;;;5111371;28;20020;-78
2022/01/13 09:48:30;;;;;;;24.73;13.30;;;2.20;99.90;;;;;;5093312;28;20063;-78
2022/01/13 09:50:59;;;;;;;31.67;12.43;;;2.30;99.90;;;;;;5091428;28;20043;-78
2022/01/13 09:53:25;;;;;;;31.45;13.25;;;2.30;99.90;;;;;;5091423;28;20016;-80
2022/01/13 09:55:51;;;;;;;31.63;12.25;;;2.30;99.90;;;;;;5083960;28;20066;-77
2022/01/13 09:58:17;;;;;;;35.85;13.77;;;2.30;99.90;;;;;;5085156;28;20032;-76
2022/01/13 10:00:44;;;;;;;32.53;13.50;;;2.40;99.90;;;;;;5064573;28;20063;-79
2022/01/13 10:03:14;;;;;;;41.03;14.27;;;2.40;99.90;;;;;;5066472;28;20027;-75
2022/01/13 10:05:48;;;;;;;30.38;14.70;;;2.50;99.90;;;;;;5081469;28;20307;-80
2022/01/13 10:08:14;;;;;;;48.45;15.73;;;2.50;99.90;;;;;;5056856;28;20047;-78
2022/01/13 10:10:40;;;;;;;38.85;15.80;;;2.50;99.90;;;;;;5071682;28;20012;-76
2022/01/13 10:13:10;;;;;;;49.15;15.23;;;2.50;99.90;;;;;;5088900;28;20349;-77
2022/01/13 10:18:46;;;;;;;45.17;16.05;;;2.60;99.90;;;;;;5084447;28;20031;-78
2022/01/13 10:21:15;;;;;;;36.92;15.40;;;2.70;99.90;;;;;;5067077;28;20056;-79
2022/01/13 10:24:06;;;;;;;41.78;15.50;;;2.80;99.90;;;;;;5068722;28;20219;-78
2022/01/13 10:26:34;;;;;;;39.53;15.40;;;2.80;99.90;;;;;;5063328;28;20358;-79
2022/01/13 10:29:00;;;;;;;46.85;16.95;;;2.90;99.90;;;;;;5097947;28;20405;-77
2022/01/13 10:31:50;;;;;;;39.42;15.68;;;3.00;99.90;;;;;;5074059;28;20024;-77
2022/01/13 10:34:20;;;;;;;39.85;15.63;;;3.00;99.90;;;;;;5096756;28;20078;-75
2022/01/13 10:37:26;;;;;;;27.75;14.73;;;3.10;99.90;;;;;;5102783;28;20326;-74
2022/01/13 10:39:57;;;;;;;34.65;14.65;;;3.10;99.90;;;;;;5088766;28;20065;-77
2022/01/13 10:45:53;;;;;;;34.40;15.60;;;3.20;99.90;;;;;;5072495;28;20024;-77
2022/01/13 10:48:28;;;;;;;41.08;15.75;;;3.20;99.90;;;;;;5061604;28;20147;-77
2022/01/13 10:50:58;;;;;;;34.72;14.98;;;3.20;99.90;;;;;;5082193;28;20211;-83
2022/01/13 10:53:28;;;;;;;43.00;15.45;;;3.30;99.90;;;;;;5065987;28;20020;-82
2022/01/13 10:56:05;;;;;;;39.13;15.52;;;3.40;99.90;;;;;;5083370;28;20268;-78
2022/01/13 10:58:35;;;;;;;38.20;16.08;;;3.50;99.90;;;;;;5095142;28;20023;-77
2022/01/13 11:01:04;;;;;;;33.70;15.57;;;3.60;99.90;;;;;;5077593;28;20051;-85
2022/01/13 11:03:33;;;;;;;42.60;16.88;;;3.70;99.90;;;;;;5086188;28;20330;-79
2022/01/13 11:06:01;;;;;;;48.28;16.48;;;3.70;99.90;;;;;;5098168;28;20016;-79
2022/01/13 11:08:41;;;;;;;46.67;16.73;;;3.70;99.90;;;;;;5082244;28;20025;-79
2022/01/13 11:11:16;;;;;;;51.28;16.38;;;3.80;99.90;;;;;;5071510;28;20032;-77
2022/01/13 11:13:52;;;;;;;34.88;16.02;;;3.80;99.90;;;;;;5102923;28;20020;-78
2022/01/13 11:16:18;;;;;;;39.50;16.48;;;3.90;99.90;;;;;;5066861;28;20028;-78
2022/01/13 11:18:43;;;;;;;52.25;17.17;;;4.00;99.90;;;;;;5082029;28;20027;-80
2022/01/13 11:21:09;;;;;;;51.38;17.10;;;4.00;99.90;;;;;;5082147;28;20056;-81
2022/01/13 11:23:37;;;;;;;58.53;18.75;;;4.00;99.90;;;;;;5082145;28;20066;-81
2022/01/13 11:26:06;;;;;;;44.05;18.23;;;4.10;99.90;;;;;;5082316;28;20294;-81
2022/01/13 11:28:36;;;;;;;58.25;20.20;;;4.10;99.90;;;;;;5064658;28;20323;-78
2022/01/13 11:31:01;;;;;;;57.42;19.02;;;4.30;99.90;;;;;;5071084;28;20304;-79
2022/01/13 11:33:27;;;;;;;49.92;18.88;;;4.50;99.90;;;;;;5045684;28;20021;-86
2022/01/13 11:35:56;;;;;;;64.65;19.52;;;4.60;99.90;;;;;;5061938;28;20020;-78
2022/01/13 11:38:24;;;;;;;48.80;17.88;;;4.60;99.90;;;;;;5063516;28;20017;-82
2022/01/13 11:40:54;;;;;;;49.92;17.63;;;4.60;99.90;;;;;;5062113;28;20362;-80
2022/01/13 11:43:31;;;;;;;49.85;18.17;;;4.60;99.90;;;;;;5053728;28;20029;-81
2022/01/13 11:46:16;;;;;;;49.60;18.50;;;4.60;99.90;;;;;;5082022;28;20188;-80
2022/01/13 11:49:10;;;;;;;45.75;21.20;;;4.70;99.90;;;;;;5082611;28;20017;-81
2022/01/13 11:51:57;;;;;;;39.55;17.63;;;4.90;99.90;;;;;;5067887;28;20210;-80
2022/01/13 11:54:39;;;;;;;46.53;17.92;;;5.00;99.90;;;;;;5080570;28;20298;-79
2022/01/13 11:57:20;;;;;;;42.38;17.27;;;5.00;99.90;;;;;;5081559;28;20017;-76
2022/01/13 12:00:23;;;;;;;40.28;18.00;;;5.00;99.90;;;;;;5064938;28;20051;-77
2022/01/13 12:02:49;;;;;;;45.97;17.67;;;5.10;99.90;;;;;;5079770;28;20110;-80
2022/01/13 12:05:18;;;;;;;41.42;18.08;;;5.20;99.90;;;;;;5066089;28;20087;-86
2022/01/13 12:07:48;;;;;;;44.38;17.13;;;5.30;99.90;;;;;;5065520;28;20020;-81
2022/01/13 12:10:53;;;;;;;37.55;18.85;;;5.30;99.90;;;;;;5069522;28;20031;-80
2022/01/13 12:13:32;;;;;;;38.83;16.02;;;5.50;99.90;;;;;;5064162;28;20032;-79
2022/01/13 12:15:58;;;;;;;44.33;14.23;;;5.60;99.90;;;;;;5065049;28;20224;-78
2022/01/13 12:19:12;;;;;;;32.80;13.73;;;5.70;99.90;;;;;;5066144;28;20024;-81
2022/01/13 12:21:44;;;;;;;36.65;14.82;;;5.80;99.90;;;;;;5056309;28;20051;-77
2022/01/13 12:24:18;;;;;;;51.83;15.77;;;5.80;99.90;;;;;;5069269;28;20024;-76
2022/01/13 12:26:47;;;;;;;59.10;15.55;;;5.90;99.90;;;;;;5063658;28;20028;-77
2022/01/13 12:29:21;;;;;;;57.97;16.80;;;6.00;99.90;;;;;;5083704;28;20024;-78
2022/01/13 12:32:08;;;;;;;47.85;14.75;;;6.00;99.90;;;;;;5075618;28;20029;-76
2022/01/13 12:34:49;;;;;;;36.45;14.65;;;6.10;99.90;;;;;;5084399;28;20019;-78
2022/01/13 12:37:21;;;;;;;47.58;15.10;;;6.20;99.90;;;;;;5052732;28;20372;-77
2022/01/13 12:39:52;;;;;;;61.60;16.08;;;6.30;99.90;;;;;;5074918;28;20028;-79
2022/01/13 12:42:24;;;;;;;72.97;16.38;;;6.30;99.90;;;;;;5060558;28;20362;-78
2022/01/13 12:47:38;;;;;;;76.28;17.33;;;6.30;99.90;;;;;;5078823;28;20025;-78
2022/01/13 12:50:27;;;;;;;91.88;17.10;;;6.30;99.90;;;;;;5066353;28;20025;-77
2022/01/13 12:53:04;;;;;;;56.60;16.48;;;6.30;99.90;;;;;;5070662;28;20300;-78
2022/01/13 12:55:30;;;;;;;62.13;14.70;;;6.40;99.90;;;;;;5100120;28;20027;-80
2022/01/13 12:57:56;;;;;;;41.33;13.00;;;6.60;99.90;;;;;;5090200;28;20319;-78
2022/01/13 13:00:25;;;;;;;36.00;11.60;;;6.70;99.90;;;;;;5085833;28;20254;-79
2022/01/13 13:02:55;;;;;;;48.50;12.02;;;6.80;99.90;;;;;;5085659;28;20040;-78
2022/01/13 13:05:44;;;;;;;38.60;12.90;;;6.90;99.90;;;;;;5095697;28;20043;-81
2022/01/13 13:08:14;;;;;;;34.45;11.65;;;6.90;99.90;;;;;;5065563;28;20025;-78